Time,TemperatureF,DewpointF,PressureIn,WindDirection,WindDirectionDegrees,WindSpeedMPH,WindSpeedGustMPH,Humidity,HourlyPrecipIn,Conditions,Clouds,dailyrainin,SolarRadiationWatts/m^2,SoftwareType,DateUTC
2013-03-10 00:00:00,36.0,31.0,-100.00,SE,135,5.0,-999.0,79,-99.99,,,-99.99,0.000000,,2013-03-10 05:00:00,
2013-03-10 00:42:00,36.0,31.0,-100.00,SE,135,5.0,-999.0,79,-99.99,,,-99.99,0.000000,,2013-03-10 05:42:00,
2013-03-10 00:52:00,36.0,31.0,-100.00,SE,135,5.0,-999.0,79,-99.99,,,-99.99,0.000000,,2013-03-10 05:52:00,
2013-03-10 01:00:00,36.0,31.0,-100.00,SE,135,4.0,-999.0,80,-99.99,,,-99.99,0.000000,,2013-03-10 06:00:00,
2013-03-10 01:42:00,36.0,31.0,-100.00,SE,135,4.0,-999.0,80,-99.99,,,-99.99,0.000000,,2013-03-10 06:42:00,
2013-03-10 01:52:00,36.0,31.0,-100.00,SE,135,4.0,-999.0,80,-99.99,,,-99.99,0.000000,,2013-03-10 06:52:00,
2013-03-10 05:00:00,37.0,31.0,-100.00,SSE,157,5.0,-999.0,77,-99.99,,,-99.99,0.000000,,2013-03-10 09:00:00,
2013-03-10 05:42:00,37.0,31.0,-100.00,SSE,157,5.0,-999.0,77,-99.99,,,-99.99,0.000000,,2013-03-10 09:42:00,
2013-03-10 05:52:00,37.0,31.0,-100.00,SSE,157,5.0,-999.0,77,-99.99,,,-99.99,0.000000,,2013-03-10 09:52:00,
2013-03-10 06:00:00,39.0,31.0,-100.00,SSE,157,5.0,-999.0,73,-99.99,,,-99.99,0.000000,,2013-03-10 10:00:00,
2013-03-10 06:32:00,39.0,31.0,-100.00,SSE,157,5.0,-999.0,73,-99.99,,,-99.99,0.000000,,2013-03-10 10:32:00,
2013-03-10 06:42:00,39.0,31.0,-100.00,SSE,157,5.0,-999.0,73,-99.99,,,-99.99,0.000000,,2013-03-10 10:42:00,
2013-03-10 06:52:00,39.0,31.0,-100.00,SSE,157,5.0,-999.0,73,-99.99,,,-99.99,0.000000,,2013-03-10 10:52:00,
2013-03-10 07:00:00,41.0,31.0,-100.00,South,180,4.0,-999.0,67,-99.99,,,-99.99,0.000000,,2013-03-10 11:00:00,
2013-03-10 07:42:00,41.0,31.0,-100.00,South,180,4.0,-999.0,67,-99.99,,,-99.99,0.000000,,2013-03-10 11:42:00,
2013-03-10 07:52:00,41.0,31.0,-100.00,South,180,4.0,-999.0,67,-99.99,,,-99.99,0.000000,,2013-03-10 11:52:00,
2013-03-10 08:00:00,43.0,33.0,-100.00,South,180,4.0,-999.0,67,0.02,,,-99.99,0.000000,,2013-03-10 12:00:00,
2013-03-10 08:42:00,43.0,33.0,-100.00,South,180,4.0,-999.0,67,0.02,,,-99.99,0.000000,,2013-03-10 12:42:00,
2013-03-10 08:52:00,43.0,33.0,-100.00,South,180,4.0,-999.0,67,0.02,,,-99.99,0.000000,,2013-03-10 12:52:00,
2013-03-10 09:00:00,41.0,36.0,-100.00,South,180,6.0,-999.0,83,0.04,,,-99.99,11.600000,,2013-03-10 13:00:00,
2013-03-10 09:42:00,41.0,36.0,-100.00,South,180,6.0,-999.0,83,0.04,,,-99.99,11.600000,,2013-03-10 13:42:00,
2013-03-10 09:52:00,41.0,36.0,-100.00,South,180,6.0,-999.0,83,0.04,,,-99.99,11.600000,,2013-03-10 13:52:00,
2013-03-10 10:00:00,42.0,40.0,-100.00,South,180,5.0,-999.0,92,-99.99,,,-99.99,74.239998,,2013-03-10 14:00:00,
2013-03-10 10:42:00,42.0,40.0,-100.00,South,180,5.0,-999.0,92,-99.99,,,-99.99,74.239998,,2013-03-10 14:42:00,
2013-03-10 10:52:00,42.0,40.0,-100.00,South,180,5.0,-999.0,92,-99.99,,,-99.99,74.239998,,2013-03-10 14:52:00,
2013-03-10 11:00:00,42.0,40.0,-100.00,SSE,157,4.0,-999.0,91,-99.99,,,-99.99,104.400002,,2013-03-10 15:00:00,
2013-03-10 11:42:00,42.0,40.0,-100.00,SSE,157,4.0,-999.0,91,-99.99,,,-99.99,104.400002,,2013-03-10 15:42:00,
2013-03-10 11:52:00,42.0,40.0,-100.00,SSE,157,4.0,-999.0,91,-99.99,,,-99.99,104.400002,,2013-03-10 15:52:00,
2013-03-10 14:00:00,46.0,38.0,-100.00,South,180,3.0,-999.0,73,-99.99,,,-99.99,198.360001,,2013-03-10 18:00:00,
2013-03-10 14:42:00,46.0,38.0,-100.00,South,180,3.0,-999.0,73,-99.99,,,-99.99,198.360001,,2013-03-10 18:42:00,
2013-03-10 14:52:00,46.0,38.0,-100.00,South,180,3.0,-999.0,73,-99.99,,,-99.99,198.360001,,2013-03-10 18:52:00,
2013-03-10 15:00:00,47.0,39.0,-100.00,SSW,202,3.0,-999.0,72,0.01,,,-99.99,163.559998,,2013-03-10 19:00:00,
2013-03-10 15:42:00,47.0,39.0,-100.00,SSW,202,3.0,-999.0,72,0.01,,,-99.99,163.559998,,2013-03-10 19:42:00,
2013-03-10 15:53:00,47.0,39.0,-100.00,SSW,202,3.0,-999.0,72,0.01,,,-99.99,163.559998,,2013-03-10 19:53:00,
2013-03-10 16:00:00,47.0,40.0,-100.00,South,180,2.0,-999.0,76,-99.99,,,-99.99,119.480003,,2013-03-10 20:00:00,
2013-03-10 16:43:00,47.0,40.0,-100.00,South,180,2.0,-999.0,76,-99.99,,,-99.99,119.480003,,2013-03-10 20:43:00,
2013-03-10 16:53:00,47.0,40.0,-100.00,South,180,2.0,-999.0,76,-99.99,,,-99.99,119.480003,,2013-03-10 20:53:00,
2013-03-10 17:00:00,47.0,40.0,-100.00,East,90,2.0,-999.0,77,-99.99,,,-99.99,127.599998,,2013-03-10 21:00:00,
2013-03-10 17:43:00,47.0,40.0,-100.00,East,90,2.0,-999.0,77,-99.99,,,-99.99,127.599998,,2013-03-10 21:43:00,
2013-03-10 17:53:00,47.0,40.0,-100.00,East,90,2.0,-999.0,77,-99.99,,,-99.99,127.599998,,2013-03-10 21:53:00,
2013-03-10 18:00:00,46.0,40.0,-100.00,East,90,2.0,-999.0,78,-99.99,,,-99.99,24.360001,,2013-03-10 22:00:00,
2013-03-10 18:43:00,46.0,40.0,-100.00,East,90,2.0,-999.0,78,-99.99,,,-99.99,24.360001,,2013-03-10 22:43:00,
2013-03-10 18:53:00,46.0,40.0,-100.00,East,90,2.0,-999.0,78,-99.99,,,-99.99,24.360001,,2013-03-10 22:53:00,
2013-03-10 19:00:00,46.0,38.0,-100.00,East,90,4.0,-999.0,74,-99.99,,,-99.99,25.520000,,2013-03-10 23:00:00,
2013-03-10 19:33:00,46.0,38.0,-100.00,East,90,4.0,-999.0,74,-99.99,,,-99.99,25.520000,,2013-03-10 23:33:00,
2013-03-10 19:43:00,46.0,38.0,-100.00,East,90,4.0,-999.0,74,-99.99,,,-99.99,25.520000,,2013-03-10 23:43:00,
2013-03-10 19:53:00,46.0,38.0,-100.00,East,90,4.0,-999.0,74,-99.99,,,-99.99,25.520000,,2013-03-10 23:53:00,
2013-03-10 20:00:00,45.0,38.0,-100.00,ESE,112,4.0,-999.0,73,-99.99,,,-99.99,4.640000,,2013-03-11 00:00:00,
2013-03-10 20:43:00,45.0,38.0,-100.00,ESE,112,4.0,-999.0,73,-99.99,,,-99.99,4.640000,,2013-03-11 00:43:00,
2013-03-10 20:53:00,45.0,38.0,-100.00,ESE,112,4.0,-999.0,73,-99.99,,,-99.99,4.640000,,2013-03-11 00:53:00,
2013-03-10 21:00:00,45.0,38.0,-100.00,ESE,112,4.0,-999.0,76,0.02,,,-99.99,0.000000,,2013-03-11 01:00:00,
2013-03-10 21:43:00,45.0,38.0,-100.00,ESE,112,4.0,-999.0,76,0.02,,,-99.99,0.000000,,2013-03-11 01:43:00,
2013-03-10 21:53:00,45.0,38.0,-100.00,ESE,112,4.0,-999.0,76,0.02,,,-99.99,0.000000,,2013-03-11 01:53:00,
2013-03-10 22:00:00,44.0,40.0,-100.00,ESE,112,3.0,-999.0,87,0.08,,,-99.99,0.000000,,2013-03-11 02:00:00,
2013-03-10 22:42:00,44.0,40.0,-100.00,ESE,112,3.0,-999.0,87,0.08,,,-99.99,0.000000,,2013-03-11 02:42:00,
2013-03-10 22:53:00,44.0,40.0,-100.00,ESE,112,3.0,-999.0,87,0.08,,,-99.99,0.000000,,2013-03-11 02:53:00,
2013-03-10 23:00:00,44.0,41.0,-100.00,SE,135,4.0,-999.0,87,0.01,,,-99.99,0.000000,,2013-03-11 03:00:00,
2013-03-10 23:43:00,44.0,41.0,-100.00,SE,135,4.0,-999.0,87,0.01,,,-99.99,0.000000,,2013-03-11 03:43:00,
2013-03-10 23:53:00,44.0,41.0,-100.00,SE,135,4.0,-999.0,87,0.01,,,-99.99,0.000000,,2013-03-11 03:53:00,